Skip Navigation Links Skip Navigation Links

Current Weather

Igloolik Airport, Nunavut

For information only: do not use for flight planning or navigation.
Latest weather
Observation time Sunday, January 21, 2018 3:00 PM EST
Local time Sunday, January 21, 2018 3:39 PM EST
Flight conditions Visual Meteorological Conditions
Winds
Wind direction Northwest (310°)
Wind speed 17 mph
Visibility 15 mi.
Present weather ice crystals
Sky condition
Ceiling 19,000 ft. broken clouds
Cloud layer scattered clouds 17,000 ft.
Cloud layer broken clouds 19,000 ft.
Temperature -17°F
Dewpoint -22°F
Altimeter 29.88 in.Hg
Derived measurements
Relative humidity 75%
Wind chill -42°F
Density altitude -5357 ft.
Sea-level pressure 29.91 in.Hg
METAR CYGT 212000Z 31015KT 15SM IC SCT170 BKN190 M27/M30 A2988 RMK CI3CI3 SLP130

Settings

Location code

InnerDrive.Weather 4.0.6144.1 Release CLR 4.0.30319.36366
Copyright ©2015 Inner Drive Technology. All rights reserved. Portions Copyright ©1986-2015 David Braverman.

Find weather

Site navigation


Skip Navigation Links

Place info

Page info

PayPal - The safer, easier way to pay online!

Return home.

Copyright ©2018 Inner Drive Technology. Purveyors of fine, hand-crafted computer software. Page printed 2018-01-21T20:39:48 UTC.